sensor_id;sensor_type;location;lat;lon;timestamp;pressure;altitude;pressure_sealevel;temperature;humidity
45467;BME280;31212;49.734;8.490;2023-01-19T00:01:28;99535.47;;;-4.17;98.87
45467;BME280;31212;49.734;8.490;2023-01-19T00:03:54;99540.91;;;-4.10;99.12
45467;BME280;31212;49.734;8.490;2023-01-19T00:06:21;99543.38;;;-4.11;99.18
45467;BME280;31212;49.734;8.490;2023-01-19T00:08:47;99545.03;;;-4.12;99.06
45467;BME280;31212;49.734;8.490;2023-01-19T00:11:15;99540.06;;;-4.10;98.47
45467;BME280;31212;49.734;8.490;2023-01-19T00:13:44;99545.59;;;-4.17;99.01
45467;BME280;31212;49.734;8.490;2023-01-19T00:16:15;99539.75;;;-4.16;99.14
45467;BME280;31212;49.734;8.490;2023-01-19T00:18:42;99545.13;;;-4.10;98.80
45467;BME280;31212;49.734;8.490;2023-01-19T00:21:09;99541.44;;;-4.17;98.76
45467;BME280;31212;49.734;8.490;2023-01-19T00:23:36;99539.69;;;-4.18;98.48
45467;BME280;31212;49.734;8.490;2023-01-19T00:26:02;99539.81;;;-4.15;98.92
45467;BME280;31212;49.734;8.490;2023-01-19T00:28:28;99536.06;;;-4.23;98.96
45467;BME280;31212;49.734;8.490;2023-01-19T00:30:56;99536.56;;;-4.12;99.12
45467;BME280;31212;49.734;8.490;2023-01-19T00:33:23;99542.66;;;-4.09;98.94
45467;BME280;31212;49.734;8.490;2023-01-19T00:35:50;99545.97;;;-4.10;98.51
45467;BME280;31212;49.734;8.490;2023-01-19T00:38:16;99552.72;;;-4.10;98.83
45467;BME280;31212;49.734;8.490;2023-01-19T00:40:43;99560.63;;;-4.04;99.03
45467;BME280;31212;49.734;8.490;2023-01-19T00:43:09;99561.69;;;-3.99;99.03
45467;BME280;31212;49.734;8.490;2023-01-19T00:45:36;99564.69;;;-3.90;98.91
45467;BME280;31212;49.734;8.490;2023-01-19T00:48:04;99567.72;;;-3.79;98.91
45467;BME280;31212;49.734;8.490;2023-01-19T00:50:31;99574.09;;;-3.69;99.00
45467;BME280;31212;49.734;8.490;2023-01-19T00:52:58;99570.22;;;-3.61;99.16
45467;BME280;31212;49.734;8.490;2023-01-19T00:55:26;99567.25;;;-3.52;99.04
45467;BME280;31212;49.734;8.490;2023-01-19T00:57:53;99578.81;;;-3.39;98.69
45467;BME280;31212;49.734;8.490;2023-01-19T01:00:20;99575.91;;;-3.29;98.01
45467;BME280;31212;49.734;8.490;2023-01-19T01:02:48;99576.78;;;-3.28;97.98
45467;BME280;31212;49.734;8.490;2023-01-19T01:05:17;99572.59;;;-3.28;98.36
45467;BME280;31212;49.734;8.490;2023-01-19T01:07:44;99574.16;;;-3.30;97.90
45467;BME280;31212;49.734;8.490;2023-01-19T01:10:15;99578.47;;;-3.29;98.15
45467;BME280;31212;49.734;8.490;2023-01-19T01:12:43;99574.84;;;-3.34;98.21
45467;BME280;31212;49.734;8.490;2023-01-19T01:15:11;99570.47;;;-3.36;97.75
45467;BME280;31212;49.734;8.490;2023-01-19T01:17:38;99574.91;;;-3.32;98.35
45467;BME280;31212;49.734;8.490;2023-01-19T01:20:15;99578.03;;;-3.38;97.86
45467;BME280;31212;49.734;8.490;2023-01-19T01:22:45;99579.84;;;-3.35;97.87
45467;BME280;31212;49.734;8.490;2023-01-19T01:25:12;99578.81;;;-3.39;97.77
45467;BME280;31212;49.734;8.490;2023-01-19T01:27:39;99588.06;;;-3.41;98.28
45467;BME280;31212;49.734;8.490;2023-01-19T01:30:08;99584.50;;;-3.45;97.97
45467;BME280;31212;49.734;8.490;2023-01-19T01:32:35;99583.34;;;-3.51;98.14
45467;BME280;31212;49.734;8.490;2023-01-19T01:35:02;99581.59;;;-3.52;98.29
45467;BME280;31212;49.734;8.490;2023-01-19T01:37:28;99576.19;;;-3.60;98.86
45467;BME280;31212;49.734;8.490;2023-01-19T01:39:56;99580.00;;;-3.68;98.70
45467;BME280;31212;49.734;8.490;2023-01-19T01:42:26;99582.72;;;-3.65;98.98
45467;BME280;31212;49.734;8.490;2023-01-19T01:44:55;99577.84;;;-3.61;98.49
45467;BME280;31212;49.734;8.490;2023-01-19T01:47:27;99582.00;;;-3.63;99.02
45467;BME280;31212;49.734;8.490;2023-01-19T01:50:00;99586.34;;;-3.60;98.90
45467;BME280;31212;49.734;8.490;2023-01-19T01:52:31;99579.22;;;-3.67;99.35
45467;BME280;31212;49.734;8.490;2023-01-19T01:55:02;99594.09;;;-3.75;99.14
45467;BME280;31212;49.734;8.490;2023-01-19T01:57:31;99593.94;;;-3.78;99.18
45467;BME280;31212;49.734;8.490;2023-01-19T01:59:59;99600.44;;;-3.83;99.64
45467;BME280;31212;49.734;8.490;2023-01-19T02:02:28;99607.06;;;-3.69;100.00
45467;BME280;31212;49.734;8.490;2023-01-19T02:05:17;99603.66;;;-3.69;99.31
45467;BME280;31212;49.734;8.490;2023-01-19T02:07:49;99598.00;;;-3.64;99.69
45467;BME280;31212;49.734;8.490;2023-01-19T02:10:35;99600.53;;;-3.64;99.87
45467;BME280;31212;49.734;8.490;2023-01-19T02:13:21;99590.59;;;-3.59;100.00
45467;BME280;31212;49.734;8.490;2023-01-19T02:15:49;99596.69;;;-3.56;100.00
45467;BME280;31212;49.734;8.490;2023-01-19T02:18:17;99600.31;;;-3.50;100.00
45467;BME280;31212;49.734;8.490;2023-01-19T02:20:51;99597.34;;;-3.60;100.00
45467;BME280;31212;49.734;8.490;2023-01-19T02:23:30;99601.63;;;-3.59;100.00
45467;BME280;31212;49.734;8.490;2023-01-19T02:25:59;99595.66;;;-3.59;100.00
45467;BME280;31212;49.734;8.490;2023-01-19T02:28:27;99608.09;;;-3.65;99.74
45467;BME280;31212;49.734;8.490;2023-01-19T02:30:53;99604.97;;;-3.60;100.00
45467;BME280;31212;49.734;8.490;2023-01-19T02:33:20;99599.16;;;-3.57;100.00
45467;BME280;31212;49.734;8.490;2023-01-19T02:35:48;99597.03;;;-3.66;100.00
45467;BME280;31212;49.734;8.490;2023-01-19T02:38:18;99602.06;;;-3.67;100.00
45467;BME280;31212;49.734;8.490;2023-01-19T02:40:47;99604.09;;;-3.60;100.00
45467;BME280;31212;49.734;8.490;2023-01-19T02:43:16;99604.66;;;-3.66;100.00
45467;BME280;31212;49.734;8.490;2023-01-19T02:45:43;99599.91;;;-3.78;100.00
45467;BME280;31212;49.734;8.490;2023-01-19T02:48:10;99605.69;;;-3.80;100.00
45467;BME280;31212;49.734;8.490;2023-01-19T02:50:42;99608.38;;;-3.77;100.00
45467;BME280;31212;49.734;8.490;2023-01-19T02:56:26;99613.00;;;-3.86;100.00
45467;BME280;31212;49.734;8.490;2023-01-19T02:59:00;99611.41;;;-3.84;100.00
45467;BME280;31212;49.734;8.490;2023-01-19T03:01:38;99601.41;;;-3.81;100.00
45467;BME280;31212;49.734;8.490;2023-01-19T03:04:12;99600.25;;;-3.70;100.00
45467;BME280;31212;49.734;8.490;2023-01-19T03:06:43;99602.56;;;-3.75;100.00
45467;BME280;31212;49.734;8.490;2023-01-19T03:09:18;99610.97;;;-3.76;100.00
45467;BME280;31212;49.734;8.490;2023-01-19T03:11:52;99607.19;;;-3.84;100.00
45467;BME280;31212;49.734;8.490;2023-01-19T03:14:20;99609.81;;;-3.82;100.00
45467;BME280;31212;49.734;8.490;2023-01-19T03:16:50;99607.41;;;-3.79;100.00
45467;BME280;31212;49.734;8.490;2023-01-19T03:19:21;99619.16;;;-3.81;100.00
45467;BME280;31212;49.734;8.490;2023-01-19T03:21:52;99615.13;;;-3.78;100.00
45467;BME280;31212;49.734;8.490;2023-01-19T03:24:21;99620.31;;;-3.75;100.00
45467;BME280;31212;49.734;8.490;2023-01-19T03:26:54;99623.22;;;-3.67;100.00
45467;BME280;31212;49.734;8.490;2023-01-19T03:29:27;99615.25;;;-3.57;100.00
45467;BME280;31212;49.734;8.490;2023-01-19T03:31:56;99630.16;;;-3.45;100.00
45467;BME280;31212;49.734;8.490;2023-01-19T03:34:26;99633.22;;;-3.34;100.00
45467;BME280;31212;49.734;8.490;2023-01-19T03:36:56;99633.81;;;-3.20;100.00
45467;BME280;31212;49.734;8.490;2023-01-19T03:39:25;99629.91;;;-3.13;100.00
45467;BME280;31212;49.734;8.490;2023-01-19T03:41:57;99626.56;;;-3.12;100.00
45467;BME280;31212;49.734;8.490;2023-01-19T03:44:26;99626.13;;;-3.03;100.00
45467;BME280;31212;49.734;8.490;2023-01-19T03:46:55;99610.97;;;-3.02;100.00
45467;BME280;31212;49.734;8.490;2023-01-19T03:49:23;99617.69;;;-3.02;100.00
45467;BME280;31212;49.734;8.490;2023-01-19T03:51:54;99617.78;;;-3.01;100.00
45467;BME280;31212;49.734;8.490;2023-01-19T03:54:21;99609.75;;;-2.91;100.00
45467;BME280;31212;49.734;8.490;2023-01-19T03:56:47;99608.75;;;-2.94;100.00
45467;BME280;31212;49.734;8.490;2023-01-19T03:59:15;99613.81;;;-2.94;100.00
45467;BME280;31212;49.734;8.490;2023-01-19T04:01:44;99612.03;;;-2.97;100.00
45467;BME280;31212;49.734;8.490;2023-01-19T04:04:11;99616.34;;;-2.94;100.00
45467;BME280;31212;49.734;8.490;2023-01-19T04:06:39;99616.16;;;-2.99;100.00
45467;BME280;31212;49.734;8.490;2023-01-19T04:09:06;99618.84;;;-2.96;100.00
45467;BME280;31212;49.734;8.490;2023-01-19T04:11:32;99622.31;;;-2.94;100.00
45467;BME280;31212;49.734;8.490;2023-01-19T04:13:59;99633.88;;;-2.81;100.00
45467;BME280;31212;49.734;8.490;2023-01-19T04:16:27;99618.84;;;-2.76;100.00
45467;BME280;31212;49.734;8.490;2023-01-19T04:18:53;99621.75;;;-2.68;100.00
45467;BME280;31212;49.734;8.490;2023-01-19T04:21:20;99609.34;;;-2.61;100.00
45467;BME280;31212;49.734;8.490;2023-01-19T04:23:47;99620.69;;;-2.53;100.00
45467;BME280;31212;49.734;8.490;2023-01-19T04:26:14;99608.81;;;-2.54;100.00
45467;BME280;31212;49.734;8.490;2023-01-19T04:28:41;99618.31;;;-2.49;100.00
45467;BME280;31212;49.734;8.490;2023-01-19T04:31:07;99621.78;;;-2.47;100.00
45467;BME280;31212;49.734;8.490;2023-01-19T04:33:35;99631.94;;;-2.47;100.00
45467;BME280;31212;49.734;8.490;2023-01-19T04:36:02;99624.19;;;-2.50;100.00
45467;BME280;31212;49.734;8.490;2023-01-19T04:38:29;99626.00;;;-2.48;100.00
45467;BME280;31212;49.734;8.490;2023-01-19T04:40:55;99627.88;;;-2.44;100.00
45467;BME280;31212;49.734;8.490;2023-01-19T04:43:22;99620.56;;;-2.36;100.00
45467;BME280;31212;49.734;8.490;2023-01-19T04:45:49;99612.06;;;-2.37;100.00
45467;BME280;31212;49.734;8.490;2023-01-19T04:48:17;99603.75;;;-2.32;100.00
45467;BME280;31212;49.734;8.490;2023-01-19T04:50:45;99605.06;;;-2.42;100.00
45467;BME280;31212;49.734;8.490;2023-01-19T04:53:12;99606.34;;;-2.52;100.00
45467;BME280;31212;49.734;8.490;2023-01-19T04:55:40;99604.41;;;-2.58;100.00
45467;BME280;31212;49.734;8.490;2023-01-19T04:58:07;99617.50;;;-2.68;100.00
45467;BME280;31212;49.734;8.490;2023-01-19T05:00:33;99622.66;;;-2.66;100.00
45467;BME280;31212;49.734;8.490;2023-01-19T05:03:00;99630.94;;;-2.71;100.00
45467;BME280;31212;49.734;8.490;2023-01-19T05:05:26;99635.34;;;-2.66;100.00
45467;BME280;31212;49.734;8.490;2023-01-19T05:07:54;99627.28;;;-2.58;100.00
45467;BME280;31212;49.734;8.490;2023-01-19T05:10:21;99633.34;;;-2.54;100.00
45467;BME280;31212;49.734;8.490;2023-01-19T05:12:47;99630.41;;;-2.44;100.00
45467;BME280;31212;49.734;8.490;2023-01-19T05:15:14;99635.56;;;-2.42;100.00
45467;BME280;31212;49.734;8.490;2023-01-19T05:17:41;99628.03;;;-2.39;100.00
45467;BME280;31212;49.734;8.490;2023-01-19T05:20:09;99627.53;;;-2.32;100.00
45467;BME280;31212;49.734;8.490;2023-01-19T05:22:36;99636.69;;;-2.35;100.00
45467;BME280;31212;49.734;8.490;2023-01-19T05:25:05;99640.34;;;-2.29;100.00
45467;BME280;31212;49.734;8.490;2023-01-19T05:27:33;99639.56;;;-2.28;100.00
45467;BME280;31212;49.734;8.490;2023-01-19T05:30:00;99632.66;;;-2.30;100.00
45467;BME280;31212;49.734;8.490;2023-01-19T05:32:28;99631.78;;;-2.31;100.00
45467;BME280;31212;49.734;8.490;2023-01-19T05:34:55;99638.81;;;-2.45;100.00
45467;BME280;31212;49.734;8.490;2023-01-19T05:37:22;99634.91;;;-2.58;100.00
45467;BME280;31212;49.734;8.490;2023-01-19T05:39:48;99635.13;;;-2.73;100.00
45467;BME280;31212;49.734;8.490;2023-01-19T05:42:16;99640.09;;;-2.74;100.00
45467;BME280;31212;49.734;8.490;2023-01-19T05:44:43;99641.25;;;-2.87;100.00
45467;BME280;31212;49.734;8.490;2023-01-19T05:47:09;99642.50;;;-2.97;100.00
45467;BME280;31212;49.734;8.490;2023-01-19T05:49:36;99642.34;;;-3.00;100.00
45467;BME280;31212;49.734;8.490;2023-01-19T05:52:03;99642.88;;;-3.07;100.00
45467;BME280;31212;49.734;8.490;2023-01-19T05:54:29;99652.09;;;-3.09;100.00
45467;BME280;31212;49.734;8.490;2023-01-19T05:56:56;99657.09;;;-3.11;100.00
45467;BME280;31212;49.734;8.490;2023-01-19T05:59:24;99659.56;;;-3.12;100.00
45467;BME280;31212;49.734;8.490;2023-01-19T06:01:50;99659.44;;;-3.15;100.00
45467;BME280;31212;49.734;8.490;2023-01-19T06:04:17;99657.91;;;-3.12;100.00
45467;BME280;31212;49.734;8.490;2023-01-19T06:06:46;99666.53;;;-3.08;100.00
45467;BME280;31212;49.734;8.490;2023-01-19T06:09:12;99674.16;;;-3.08;100.00
45467;BME280;31212;49.734;8.490;2023-01-19T06:11:39;99684.59;;;-3.02;100.00
45467;BME280;31212;49.734;8.490;2023-01-19T06:14:05;99685.69;;;-2.97;100.00
45467;BME280;31212;49.734;8.490;2023-01-19T06:16:33;99685.41;;;-2.83;100.00
45467;BME280;31212;49.734;8.490;2023-01-19T06:18:59;99682.97;;;-2.82;100.00
45467;BME280;31212;49.734;8.490;2023-01-19T06:21:26;99685.16;;;-2.70;100.00
45467;BME280;31212;49.734;8.490;2023-01-19T06:23:52;99687.03;;;-2.66;100.00
45467;BME280;31212;49.734;8.490;2023-01-19T06:26:19;99686.06;;;-2.69;100.00
45467;BME280;31212;49.734;8.490;2023-01-19T06:28:46;99680.84;;;-2.73;100.00
45467;BME280;31212;49.734;8.490;2023-01-19T06:31:13;99687.78;;;-2.68;100.00
45467;BME280;31212;49.734;8.490;2023-01-19T06:33:42;99691.94;;;-2.71;100.00
45467;BME280;31212;49.734;8.490;2023-01-19T06:36:09;99683.84;;;-2.62;100.00
45467;BME280;31212;49.734;8.490;2023-01-19T06:38:36;99682.66;;;-2.50;100.00
45467;BME280;31212;49.734;8.490;2023-01-19T06:41:02;99684.50;;;-2.46;100.00
45467;BME280;31212;49.734;8.490;2023-01-19T06:43:30;99680.78;;;-2.55;100.00
45467;BME280;31212;49.734;8.490;2023-01-19T06:45:57;99674.97;;;-2.52;100.00
45467;BME280;31212;49.734;8.490;2023-01-19T06:48:25;99683.56;;;-2.48;100.00
45467;BME280;31212;49.734;8.490;2023-01-19T06:50:53;99684.38;;;-2.49;100.00
45467;BME280;31212;49.734;8.490;2023-01-19T06:53:20;99683.66;;;-2.47;100.00
45467;BME280;31212;49.734;8.490;2023-01-19T06:55:47;99692.19;;;-2.45;100.00
45467;BME280;31212;49.734;8.490;2023-01-19T06:58:13;99704.84;;;-2.46;100.00
45467;BME280;31212;49.734;8.490;2023-01-19T07:00:40;99707.44;;;-2.45;100.00
45467;BME280;31212;49.734;8.490;2023-01-19T07:03:07;99704.13;;;-2.44;100.00
45467;BME280;31212;49.734;8.490;2023-01-19T07:05:34;99717.69;;;-2.43;100.00
45467;BME280;31212;49.734;8.490;2023-01-19T07:08:03;99717.84;;;-2.40;100.00
45467;BME280;31212;49.734;8.490;2023-01-19T07:10:29;99728.31;;;-2.32;100.00
45467;BME280;31212;49.734;8.490;2023-01-19T07:12:56;99729.06;;;-2.35;100.00
45467;BME280;31212;49.734;8.490;2023-01-19T07:15:22;99736.16;;;-2.28;100.00
45467;BME280;31212;49.734;8.490;2023-01-19T07:17:49;99746.06;;;-2.34;100.00
45467;BME280;31212;49.734;8.490;2023-01-19T07:20:16;99746.28;;;-2.29;100.00
45467;BME280;31212;49.734;8.490;2023-01-19T07:22:44;99746.81;;;-2.17;100.00
45467;BME280;31212;49.734;8.490;2023-01-19T07:25:13;99750.19;;;-2.16;100.00
45467;BME280;31212;49.734;8.490;2023-01-19T07:27:39;99760.03;;;-2.05;100.00
45467;BME280;31212;49.734;8.490;2023-01-19T07:30:07;99756.59;;;-1.86;100.00
45467;BME280;31212;49.734;8.490;2023-01-19T07:32:34;99753.09;;;-1.68;100.00
45467;BME280;31212;49.734;8.490;2023-01-19T07:35:00;99749.53;;;-1.72;100.00
45467;BME280;31212;49.734;8.490;2023-01-19T07:37:27;99746.69;;;-1.79;100.00
45467;BME280;31212;49.734;8.490;2023-01-19T07:39:53;99753.31;;;-1.83;100.00
45467;BME280;31212;49.734;8.490;2023-01-19T07:42:21;99743.09;;;-1.84;100.00
45467;BME280;31212;49.734;8.490;2023-01-19T07:44:48;99753.28;;;-1.84;100.00
45467;BME280;31212;49.734;8.490;2023-01-19T07:47:14;99752.66;;;-1.79;100.00
45467;BME280;31212;49.734;8.490;2023-01-19T07:49:41;99755.81;;;-1.84;100.00
45467;BME280;31212;49.734;8.490;2023-01-19T07:52:07;99749.44;;;-1.75;100.00
45467;BME280;31212;49.734;8.490;2023-01-19T07:54:34;99744.00;;;-1.82;100.00
45467;BME280;31212;49.734;8.490;2023-01-19T07:57:01;99738.56;;;-1.71;100.00
45467;BME280;31212;49.734;8.490;2023-01-19T07:59:29;99735.41;;;-1.65;100.00
45467;BME280;31212;49.734;8.490;2023-01-19T08:01:57;99726.69;;;-1.70;100.00
45467;BME280;31212;49.734;8.490;2023-01-19T08:04:24;99734.16;;;-1.75;100.00
45467;BME280;31212;49.734;8.490;2023-01-19T08:06:51;99739.19;;;-1.76;100.00
45467;BME280;31212;49.734;8.490;2023-01-19T08:09:17;99741.97;;;-1.70;100.00
45467;BME280;31212;49.734;8.490;2023-01-19T08:11:44;99732.63;;;-1.71;100.00
45467;BME280;31212;49.734;8.490;2023-01-19T08:14:11;99734.59;;;-1.64;100.00
45467;BME280;31212;49.734;8.490;2023-01-19T08:16:39;99741.00;;;-1.53;100.00
45467;BME280;31212;49.734;8.490;2023-01-19T08:19:06;99737.47;;;-1.56;100.00
45467;BME280;31212;49.734;8.490;2023-01-19T08:21:32;99734.34;;;-1.49;100.00
45467;BME280;31212;49.734;8.490;2023-01-19T08:24:00;99734.19;;;-1.54;100.00
45467;BME280;31212;49.734;8.490;2023-01-19T08:26:28;99732.56;;;-1.52;100.00
45467;BME280;31212;49.734;8.490;2023-01-19T08:28:57;99730.81;;;-1.53;100.00
45467;BME280;31212;49.734;8.490;2023-01-19T08:31:24;99728.81;;;-1.60;100.00
45467;BME280;31212;49.734;8.490;2023-01-19T08:33:53;99734.97;;;-1.55;100.00
45467;BME280;31212;49.734;8.490;2023-01-19T08:36:20;99729.16;;;-1.52;100.00
45467;BME280;31212;49.734;8.490;2023-01-19T08:38:48;99739.50;;;-1.47;100.00
45467;BME280;31212;49.734;8.490;2023-01-19T08:41:14;99740.69;;;-1.39;100.00
45467;BME280;31212;49.734;8.490;2023-01-19T08:43:41;99741.63;;;-1.37;100.00
45467;BME280;31212;49.734;8.490;2023-01-19T08:46:09;99737.75;;;-1.27;99.88
45467;BME280;31212;49.734;8.490;2023-01-19T08:48:35;99736.97;;;-1.26;100.00
45467;BME280;31212;49.734;8.490;2023-01-19T08:51:03;99731.50;;;-1.14;99.59
45467;BME280;31212;49.734;8.490;2023-01-19T08:53:30;99737.97;;;-1.00;99.68
45467;BME280;31212;49.734;8.490;2023-01-19T08:55:57;99730.34;;;-0.77;98.98
45467;BME280;31212;49.734;8.490;2023-01-19T08:58:24;99727.69;;;-0.58;98.51
45467;BME280;31212;49.734;8.490;2023-01-19T09:00:51;99715.00;;;-0.32;98.07
45467;BME280;31212;49.734;8.490;2023-01-19T09:03:18;99705.66;;;-0.07;97.00
45467;BME280;31212;49.734;8.490;2023-01-19T09:05:45;99706.38;;;0.40;95.85
45467;BME280;31212;49.734;8.490;2023-01-19T09:08:13;99694.88;;;1.38;93.79
45467;BME280;31212;49.734;8.490;2023-01-19T09:10:44;99645.66;;;2.12;90.68
45467;BME280;31212;49.734;8.490;2023-01-19T09:13:11;99581.25;;;2.70;87.49
45467;BME280;31212;49.734;8.490;2023-01-19T09:18:34;99340.31;;;4.54;79.32
45467;BME280;31212;49.734;8.490;2023-01-19T09:21:01;99176.81;;;4.70;75.86
45467;BME280;31212;49.734;8.490;2023-01-19T09:23:29;99103.56;;;4.14;74.56
45467;BME280;31212;49.734;8.490;2023-01-19T09:25:57;99091.28;;;3.79;74.71
45467;BME280;31212;49.734;8.490;2023-01-19T09:28:25;99121.78;;;2.77;75.70
45467;BME280;31212;49.734;8.490;2023-01-19T09:30:52;99212.06;;;2.10;77.81
45467;BME280;31212;49.734;8.490;2023-01-19T09:33:19;99289.69;;;1.63;79.68
45467;BME280;31212;49.734;8.490;2023-01-19T09:35:47;99356.28;;;1.30;81.37
45467;BME280;31212;49.734;8.490;2023-01-19T09:38:16;99423.81;;;1.05;83.06
45467;BME280;31212;49.734;8.490;2023-01-19T09:40:48;99467.78;;;0.91;83.98
45467;BME280;31212;49.734;8.490;2023-01-19T09:43:20;99512.94;;;0.92;84.78
45467;BME280;31212;49.734;8.490;2023-01-19T09:45:53;99536.66;;;0.87;85.35
45467;BME280;31212;49.734;8.490;2023-01-19T09:48:32;99555.59;;;0.93;86.00
45467;BME280;31212;49.734;8.490;2023-01-19T09:51:04;99570.84;;;0.92;86.09
45467;BME280;31212;49.734;8.490;2023-01-19T09:53:42;99580.22;;;0.91;86.82
45467;BME280;31212;49.734;8.490;2023-01-19T09:56:17;99597.88;;;1.14;87.10
45467;BME280;31212;49.734;8.490;2023-01-19T09:58:45;99603.91;;;1.48;86.53
45467;BME280;31212;49.734;8.490;2023-01-19T10:01:25;99589.53;;;1.85;85.82
45467;BME280;31212;49.734;8.490;2023-01-19T10:04:06;99556.16;;;2.17;84.62
45467;BME280;31212;49.734;8.490;2023-01-19T10:06:34;99523.38;;;2.40;83.42
45467;BME280;31212;49.734;8.490;2023-01-19T10:09:05;99488.66;;;2.55;82.46
45467;BME280;31212;49.734;8.490;2023-01-19T10:11:42;99481.66;;;2.90;82.19
45467;BME280;31212;49.734;8.490;2023-01-19T10:14:15;99428.09;;;3.02;80.91
45467;BME280;31212;49.734;8.490;2023-01-19T10:16:50;99413.91;;;2.76;80.75
45467;BME280;31212;49.734;8.490;2023-01-19T10:19:22;99410.19;;;2.60;80.55
45467;BME280;31212;49.734;8.490;2023-01-19T10:21:51;99413.09;;;2.32;80.68
45467;BME280;31212;49.734;8.490;2023-01-19T10:24:22;99417.09;;;2.21;80.97
45467;BME280;31212;49.734;8.490;2023-01-19T10:26:54;99410.78;;;2.05;80.75
45467;BME280;31212;49.734;8.490;2023-01-19T10:29:25;99431.00;;;1.93;81.10
45467;BME280;31212;49.734;8.490;2023-01-19T10:32:00;99422.13;;;1.77;81.77
45467;BME280;31212;49.734;8.490;2023-01-19T10:34:28;99440.69;;;1.68;81.65
45467;BME280;31212;49.734;8.490;2023-01-19T10:36:59;99464.91;;;1.81;82.43
45467;BME280;31212;49.734;8.490;2023-01-19T10:39:27;99470.00;;;1.81;81.68
45467;BME280;31212;49.734;8.490;2023-01-19T10:41:58;99465.06;;;1.89;82.10
45467;BME280;31212;49.734;8.490;2023-01-19T10:44:27;99463.72;;;2.06;81.98
45467;BME280;31212;49.734;8.490;2023-01-19T10:46:56;99451.16;;;2.17;81.84
45467;BME280;31212;49.734;8.490;2023-01-19T10:49:25;99446.22;;;2.25;81.23
45467;BME280;31212;49.734;8.490;2023-01-19T10:51:52;99439.81;;;2.47;80.93
45467;BME280;31212;49.734;8.490;2023-01-19T10:54:20;99424.63;;;2.55;81.01
45467;BME280;31212;49.734;8.490;2023-01-19T10:56:50;99389.94;;;2.74;80.13
45467;BME280;31212;49.734;8.490;2023-01-19T10:59:34;99365.63;;;2.99;79.12
45467;BME280;31212;49.734;8.490;2023-01-19T11:02:15;99331.53;;;3.06;78.35
45467;BME280;31212;49.734;8.490;2023-01-19T11:04:43;99285.94;;;2.86;77.81
45467;BME280;31212;49.734;8.490;2023-01-19T11:07:13;99275.66;;;2.83;77.91
45467;BME280;31212;49.734;8.490;2023-01-19T11:09:40;99194.84;;;2.52;77.38
45467;BME280;31212;49.734;8.490;2023-01-19T11:12:14;99177.56;;;2.39;76.80
45467;BME280;31212;49.734;8.490;2023-01-19T11:14:43;99165.53;;;2.33;76.12
45467;BME280;31212;49.734;8.490;2023-01-19T11:17:18;99169.50;;;2.17;76.33
45467;BME280;31212;49.734;8.490;2023-01-19T11:19:52;99189.09;;;2.13;76.08
45467;BME280;31212;49.734;8.490;2023-01-19T11:22:25;99172.69;;;2.02;76.47
45467;BME280;31212;49.734;8.490;2023-01-19T11:24:57;99188.66;;;1.90;76.65
45467;BME280;31212;49.734;8.490;2023-01-19T11:27:24;99221.44;;;2.08;76.64
45467;BME280;31212;49.734;8.490;2023-01-19T11:29:59;99221.16;;;1.94;76.95
45467;BME280;31212;49.734;8.490;2023-01-19T11:32:26;99228.00;;;1.94;76.74
45467;BME280;31212;49.734;8.490;2023-01-19T11:34:53;99233.25;;;2.01;77.03
45467;BME280;31212;49.734;8.490;2023-01-19T11:37:29;99230.59;;;1.97;77.16
45467;BME280;31212;49.734;8.490;2023-01-19T11:39:57;99302.22;;;1.94;78.13
45467;BME280;31212;49.734;8.490;2023-01-19T11:42:25;99365.47;;;1.99;79.28
45467;BME280;31212;49.734;8.490;2023-01-19T11:44:59;99398.44;;;1.85;80.14
45467;BME280;31212;49.734;8.490;2023-01-19T11:47:31;99422.44;;;1.91;80.32
45467;BME280;31212;49.734;8.490;2023-01-19T11:50:00;99433.53;;;1.91;80.30
45467;BME280;31212;49.734;8.490;2023-01-19T11:52:33;99446.50;;;1.97;80.79
45467;BME280;31212;49.734;8.490;2023-01-19T11:55:06;99446.41;;;1.94;80.70
45467;BME280;31212;49.734;8.490;2023-01-19T11:57:44;99435.50;;;2.01;80.72
45467;BME280;31212;49.734;8.490;2023-01-19T12:00:21;99438.84;;;1.99;80.64
45467;BME280;31212;49.734;8.490;2023-01-19T12:02:49;99446.56;;;2.02;80.48
45467;BME280;31212;49.734;8.490;2023-01-19T12:05:19;99446.50;;;1.97;81.10
45467;BME280;31212;49.734;8.490;2023-01-19T12:07:48;99442.19;;;1.96;81.11
45467;BME280;31212;49.734;8.490;2023-01-19T12:10:22;99464.06;;;1.83;80.95
45467;BME280;31212;49.734;8.490;2023-01-19T12:12:50;99478.63;;;1.86;81.62
45467;BME280;31212;49.734;8.490;2023-01-19T12:15:23;99497.84;;;1.68;81.96
45467;BME280;31212;49.734;8.490;2023-01-19T12:17:53;99513.03;;;1.61;82.30
45467;BME280;31212;49.734;8.490;2023-01-19T12:20:26;99541.91;;;1.57;83.13
45467;BME280;31212;49.734;8.490;2023-01-19T12:23:01;99563.91;;;1.50;83.72
45467;BME280;31212;49.734;8.490;2023-01-19T12:25:38;99581.56;;;1.41;84.76
45467;BME280;31212;49.734;8.490;2023-01-19T12:28:11;99605.31;;;1.35;85.35
45467;BME280;31212;49.734;8.490;2023-01-19T12:30:39;99620.97;;;1.17;86.52
45467;BME280;31212;49.734;8.490;2023-01-19T12:33:28;99645.19;;;0.99;87.17
45467;BME280;31212;49.734;8.490;2023-01-19T12:36:00;99653.88;;;1.05;88.02
45467;BME280;31212;49.734;8.490;2023-01-19T12:38:43;99666.28;;;0.92;88.47
45467;BME280;31212;49.734;8.490;2023-01-19T12:41:25;99660.19;;;0.89;89.06
45467;BME280;31212;49.734;8.490;2023-01-19T12:44:27;99661.13;;;0.91;89.09
45467;BME280;31212;49.734;8.490;2023-01-19T12:46:57;99668.97;;;0.97;89.65
45467;BME280;31212;49.734;8.490;2023-01-19T12:49:33;99664.94;;;1.05;89.46
45467;BME280;31212;49.734;8.490;2023-01-19T12:52:23;99651.06;;;0.97;89.16
45467;BME280;31212;49.734;8.490;2023-01-19T12:54:57;99632.50;;;1.03;88.37
45467;BME280;31212;49.734;8.490;2023-01-19T12:57:29;99623.88;;;0.99;88.05
45467;BME280;31212;49.734;8.490;2023-01-19T12:59:58;99618.84;;;1.02;87.85
45467;BME280;31212;49.734;8.490;2023-01-19T13:02:50;99629.00;;;0.99;88.28
45467;BME280;31212;49.734;8.490;2023-01-19T13:05:21;99623.13;;;1.02;88.05
45467;BME280;31212;49.734;8.490;2023-01-19T13:08:22;99625.47;;;0.95;88.11
45467;BME280;31212;49.734;8.490;2023-01-19T13:11:15;99630.03;;;1.06;88.63
45467;BME280;31212;49.734;8.490;2023-01-19T13:13:44;99637.81;;;1.10;88.65
45467;BME280;31212;49.734;8.490;2023-01-19T13:19:17;99630.88;;;1.35;88.12